Time;durP1;ratioP1;P1;durP2;ratioP2;P2;SDS_P1;SDS_P2;PMS_P1;PMS_P2;Temp;Humidity;BMP_temperature;BMP_pressure;BME280_temperature;BME280_humidity;BME280_pressure;Samples;Min_cycle;Max_cycle;Signal;HPM_P1;HPM_P2
2023/02/03 00:00:43;;;;;;;9.73;4.10;;;8.30;99.90;;;;;;5045320;28;20952;-73
2023/02/03 00:03:28;;;;;;;12.93;5.20;;;8.20;99.90;;;;;;5051088;28;20578;-74
2023/02/03 00:06:14;;;;;;;11.37;4.77;;;8.30;99.90;;;;;;5048431;28;20448;-74
2023/02/03 00:09:00;;;;;;;9.02;4.70;;;8.20;99.90;;;;;;5040594;28;20890;-73
2023/02/03 00:11:48;;;;;;;10.33;5.13;;;8.20;99.90;;;;;;5046558;28;20713;-74
2023/02/03 00:14:33;;;;;;;17.47;5.10;;;8.20;99.90;;;;;;5048825;28;20590;-74
2023/02/03 00:17:19;;;;;;;14.20;4.90;;;8.20;99.90;;;;;;5044695;28;21016;-73
2023/02/03 00:20:05;;;;;;;10.53;4.70;;;8.20;99.90;;;;;;5048331;28;20451;-74
2023/02/03 00:22:51;;;;;;;9.30;6.47;;;8.10;99.90;;;;;;5049256;28;20972;-73
2023/02/03 00:25:37;;;;;;;9.10;5.28;;;8.10;99.90;;;;;;5044673;28;20447;-74
2023/02/03 00:28:27;;;;;;;10.50;5.93;;;8.20;99.90;;;;;;5043649;28;20197;-74
2023/02/03 00:31:16;;;;;;;8.97;5.97;;;8.20;99.90;;;;;;5046290;28;20846;-74
2023/02/03 00:34:02;;;;;;;12.47;4.90;;;8.10;99.90;;;;;;5049322;28;20451;-74
2023/02/03 00:36:48;;;;;;;13.40;5.40;;;8.10;99.90;;;;;;5043247;28;20929;-73
2023/02/03 00:39:36;;;;;;;13.53;5.20;;;8.10;99.90;;;;;;5046721;28;20451;-73
2023/02/03 00:42:21;;;;;;;6.67;5.13;;;8.10;99.90;;;;;;5046309;28;20479;-74
2023/02/03 00:45:09;;;;;;;16.73;5.87;;;8.10;99.90;;;;;;5047645;28;20444;-74
2023/02/03 00:47:55;;;;;;;9.90;5.15;;;8.20;99.90;;;;;;5047607;28;20448;-73
2023/02/03 00:50:40;;;;;;;10.98;5.38;;;8.10;99.90;;;;;;5047319;28;20318;-73
2023/02/03 00:53:26;;;;;;;9.83;5.60;;;8.20;99.90;;;;;;5051734;28;20224;-74
2023/02/03 00:56:12;;;;;;;12.53;5.47;;;8.10;99.90;;;;;;5051463;28;20447;-74
2023/02/03 00:58:58;;;;;;;8.40;5.13;;;8.20;99.90;;;;;;5051911;28;20505;-74
2023/02/03 01:01:45;;;;;;;7.50;5.60;;;8.20;99.90;;;;;;5052401;28;20479;-73
2023/02/03 01:04:30;;;;;;;11.73;6.10;;;8.30;99.90;;;;;;5050499;28;20481;-73
2023/02/03 01:07:16;;;;;;;7.13;5.20;;;8.30;99.90;;;;;;5043137;28;20455;-74
2023/02/03 01:10:03;;;;;;;8.57;4.93;;;8.30;99.90;;;;;;5055417;28;20232;-74
2023/02/03 01:12:48;;;;;;;10.83;4.73;;;8.40;99.90;;;;;;5047473;28;20842;-73
2023/02/03 01:15:34;;;;;;;11.27;4.40;;;8.50;99.90;;;;;;5052786;28;20517;-74
2023/02/03 01:18:21;;;;;;;11.40;5.10;;;8.50;99.90;;;;;;5046419;28;21631;-74
2023/02/03 01:21:08;;;;;;;15.73;5.13;;;8.50;99.90;;;;;;5053901;28;20438;-73
2023/02/03 01:23:56;;;;;;;8.43;4.20;;;8.40;99.90;;;;;;5047770;28;20571;-73
2023/02/03 01:26:42;;;;;;;10.55;4.68;;;8.40;99.90;;;;;;5045694;28;20444;-74
2023/02/03 01:29:28;;;;;;;13.30;4.75;;;8.30;99.90;;;;;;5053654;28;20200;-74
2023/02/03 01:32:14;;;;;;;8.33;4.20;;;8.30;99.90;;;;;;5052895;28;20229;-73
2023/02/03 01:35:01;;;;;;;6.70;4.27;;;8.30;99.90;;;;;;5049417;28;20813;-74
2023/02/03 01:37:47;;;;;;;11.40;5.00;;;8.40;99.90;;;;;;5045795;28;20462;-73
2023/02/03 01:40:32;;;;;;;8.38;4.20;;;8.40;99.90;;;;;;5050925;28;20965;-74
2023/02/03 01:43:30;;;;;;;9.10;6.03;;;8.40;99.90;;;;;;5049558;28;20596;-74
2023/02/03 01:46:24;;;;;;;9.80;5.43;;;8.40;99.90;;;;;;5045616;28;20448;-74
2023/02/03 01:49:16;;;;;;;7.87;5.97;;;8.40;99.90;;;;;;5051896;28;20418;-73
2023/02/03 01:52:04;;;;;;;15.07;5.67;;;8.40;99.90;;;;;;5051838;28;20621;-73
2023/02/03 01:54:53;;;;;;;13.63;4.80;;;8.30;99.90;;;;;;5053485;28;20493;-74
2023/02/03 01:57:45;;;;;;;7.22;4.68;;;8.30;99.90;;;;;;5050678;28;20443;-74
2023/02/03 02:00:31;;;;;;;9.93;4.57;;;8.20;99.90;;;;;;5049794;28;20208;-74
2023/02/03 02:03:18;;;;;;;8.37;4.73;;;8.20;99.90;;;;;;5048103;28;21004;-74
2023/02/03 02:06:08;;;;;;;7.05;4.68;;;8.30;99.90;;;;;;5047872;28;20523;-73
2023/02/03 02:08:59;;;;;;;6.68;5.10;;;8.30;99.90;;;;;;5054608;28;20208;-74
2023/02/03 02:11:45;;;;;;;7.27;4.70;;;8.30;99.90;;;;;;5049297;28;20233;-74
2023/02/03 02:14:32;;;;;;;5.53;3.90;;;8.30;99.90;;;;;;5055287;28;20455;-74
2023/02/03 02:17:34;;;;;;;10.90;3.90;;;8.40;99.90;;;;;;5044990;28;20574;-74
2023/02/03 02:20:59;;;;;;;7.93;4.03;;;8.40;99.90;;;;;;5048651;28;20492;-73
2023/02/03 02:24:14;;;;;;;6.43;3.43;;;8.50;99.90;;;;;;5051932;28;20984;-73
2023/02/03 02:27:08;;;;;;;7.33;3.80;;;8.40;99.90;;;;;;5046780;28;20521;-74
2023/02/03 02:30:34;;;;;;;5.10;3.00;;;8.30;99.90;;;;;;5050857;28;20439;-74
2023/02/03 02:33:34;;;;;;;3.80;2.53;;;8.30;99.90;;;;;;5049452;28;21030;-74
2023/02/03 02:36:30;;;;;;;7.03;3.13;;;8.30;99.90;;;;;;5043471;28;20422;-74
2023/02/03 02:39:23;;;;;;;6.10;2.63;;;8.40;99.90;;;;;;5054647;28;20574;-74
2023/02/03 02:42:15;;;;;;;4.10;3.50;;;8.30;99.90;;;;;;5054249;28;20229;-74
2023/02/03 02:45:09;;;;;;;7.60;3.30;;;8.30;99.90;;;;;;5048651;28;20466;-74
2023/02/03 02:48:00;;;;;;;10.30;3.13;;;8.30;99.90;;;;;;5053606;28;20971;-74
2023/02/03 02:50:49;;;;;;;4.23;2.73;;;8.20;99.90;;;;;;5048627;28;20468;-72
2023/02/03 02:53:41;;;;;;;5.80;2.60;;;8.10;99.90;;;;;;5042072;28;20443;-74
2023/02/03 02:56:28;;;;;;;4.63;2.97;;;8.20;99.90;;;;;;5045881;28;20595;-74
2023/02/03 02:59:15;;;;;;;5.60;2.53;;;8.20;99.90;;;;;;5052945;28;20961;-74
2023/02/03 03:02:01;;;;;;;12.20;2.90;;;8.30;99.90;;;;;;5052246;28;20479;-74
2023/02/03 03:04:49;;;;;;;6.00;2.73;;;8.30;99.90;;;;;;5049433;28;20872;-74
2023/02/03 03:07:43;;;;;;;7.47;3.00;;;8.30;99.90;;;;;;5048323;28;20964;-74
2023/02/03 03:10:32;;;;;;;7.70;2.90;;;8.30;99.90;;;;;;5049071;28;20582;-74
2023/02/03 03:13:24;;;;;;;4.73;3.03;;;8.20;99.90;;;;;;5048053;28;20614;-74
2023/02/03 03:16:12;;;;;;;6.40;3.10;;;8.30;99.90;;;;;;5045489;28;20447;-74
2023/02/03 03:19:02;;;;;;;8.63;3.23;;;8.30;99.90;;;;;;5049762;28;20451;-73
2023/02/03 03:21:50;;;;;;;5.07;4.10;;;8.20;99.90;;;;;;5046215;28;20459;-74
2023/02/03 03:24:41;;;;;;;7.30;3.87;;;8.20;99.90;;;;;;5041825;28;20448;-74
2023/02/03 03:27:31;;;;;;;6.83;4.10;;;8.20;99.90;;;;;;5044946;28;20456;-74
2023/02/03 03:30:22;;;;;;;6.10;4.00;;;8.10;99.90;;;;;;5051710;28;20458;-74
2023/02/03 03:33:09;;;;;;;5.90;4.20;;;8.10;99.90;;;;;;5047637;28;20483;-74
2023/02/03 03:35:59;;;;;;;12.97;4.53;;;8.20;99.90;;;;;;5038267;28;20518;-74
2023/02/03 03:38:53;;;;;;;8.83;4.80;;;8.20;99.90;;;;;;5054567;28;20809;-74
2023/02/03 03:41:50;;;;;;;6.38;3.78;;;8.20;99.90;;;;;;5047030;28;20892;-72
2023/02/03 03:44:43;;;;;;;9.20;4.00;;;8.00;99.90;;;;;;5045208;28;20403;-73
2023/02/03 03:47:34;;;;;;;7.45;4.20;;;7.90;99.90;;;;;;5047416;28;20777;-73
2023/02/03 03:50:23;;;;;;;8.70;4.60;;;7.90;99.90;;;;;;5048049;28;20332;-74
2023/02/03 03:53:11;;;;;;;6.43;4.10;;;7.90;99.90;;;;;;5046758;28;20451;-74
2023/02/03 03:56:00;;;;;;;7.23;4.50;;;7.80;99.90;;;;;;5045682;28;20444;-73
2023/02/03 03:58:49;;;;;;;5.10;4.47;;;7.80;99.90;;;;;;5049750;28;20450;-74
2023/02/03 04:01:36;;;;;;;5.03;3.83;;;7.80;99.90;;;;;;5042610;28;20525;-74
2023/02/03 04:04:24;;;;;;;6.77;4.13;;;7.80;99.90;;;;;;5044357;28;20853;-74
2023/02/03 04:07:09;;;;;;;6.80;3.90;;;7.90;99.90;;;;;;5048647;28;20443;-73
2023/02/03 04:09:55;;;;;;;7.33;4.77;;;7.90;99.90;;;;;;5049200;28;20274;-74
2023/02/03 04:12:41;;;;;;;7.87;5.60;;;8.00;99.90;;;;;;5042383;28;20601;-74
2023/02/03 04:15:28;;;;;;;6.50;5.80;;;8.00;99.90;;;;;;5043679;28;20439;-74
2023/02/03 04:18:14;;;;;;;6.23;5.60;;;8.00;99.90;;;;;;5047106;28;20525;-74
2023/02/03 04:21:00;;;;;;;8.10;5.50;;;8.10;99.90;;;;;;5048987;28;20460;-74
2023/02/03 04:23:45;;;;;;;8.80;6.47;;;8.00;99.90;;;;;;5037102;28;20460;-73
2023/02/03 04:26:31;;;;;;;8.07;6.83;;;8.10;99.90;;;;;;5045566;28;20940;-74
2023/02/03 04:29:17;;;;;;;8.00;7.20;;;8.10;99.90;;;;;;5048255;28;20448;-74
2023/02/03 04:32:04;;;;;;;9.13;6.20;;;8.10;99.90;;;;;;5047659;28;20836;-73
2023/02/03 04:34:50;;;;;;;6.40;5.67;;;8.10;99.90;;;;;;5041884;28;20502;-74
2023/02/03 04:37:36;;;;;;;6.93;4.83;;;8.00;99.90;;;;;;5051157;28;20451;-74
2023/02/03 04:40:22;;;;;;;9.23;5.50;;;8.00;99.90;;;;;;5052416;28;20455;-74
2023/02/03 04:43:08;;;;;;;6.87;5.00;;;8.00;99.90;;;;;;5045484;28;20470;-74
2023/02/03 04:45:53;;;;;;;6.40;4.50;;;8.00;99.90;;;;;;5048609;28;20443;-73
2023/02/03 04:48:40;;;;;;;5.33;4.70;;;8.00;99.90;;;;;;5045777;28;20436;-73
2023/02/03 04:51:26;;;;;;;11.88;6.38;;;8.00;99.90;;;;;;5047175;28;20467;-74
2023/02/03 04:54:12;;;;;;;7.87;4.80;;;8.00;99.90;;;;;;5041937;28;20225;-74
2023/02/03 04:56:57;;;;;;;5.60;3.60;;;8.00;99.90;;;;;;5045362;28;20447;-73
2023/02/03 04:59:43;;;;;;;9.07;4.10;;;7.90;99.90;;;;;;5048141;28;20582;-75
2023/02/03 05:02:28;;;;;;;7.43;3.97;;;7.90;99.90;;;;;;5047849;28;20482;-74
2023/02/03 05:05:16;;;;;;;7.43;3.73;;;7.90;99.90;;;;;;5046565;28;20752;-74
2023/02/03 05:08:02;;;;;;;7.70;4.70;;;7.90;99.90;;;;;;5050003;28;20497;-73
2023/02/03 05:10:47;;;;;;;6.57;4.10;;;7.90;99.90;;;;;;5052988;28;20446;-73
2023/02/03 05:13:33;;;;;;;5.00;4.47;;;7.90;99.90;;;;;;5042395;28;20507;-73
2023/02/03 05:16:19;;;;;;;5.90;5.00;;;8.00;99.90;;;;;;5045519;28;20506;-73
2023/02/03 05:19:04;;;;;;;5.23;4.07;;;8.00;99.90;;;;;;5047362;28;20438;-74
2023/02/03 05:21:51;;;;;;;6.33;4.77;;;8.00;99.90;;;;;;5045519;28;20610;-74
2023/02/03 05:24:36;;;;;;;5.80;4.40;;;7.90;99.90;;;;;;5042071;28;20450;-73
2023/02/03 05:27:22;;;;;;;12.17;4.80;;;8.00;99.90;;;;;;5049336;28;20209;-74
2023/02/03 05:30:09;;;;;;;8.40;3.78;;;7.80;99.90;;;;;;5050141;28;21048;-74
2023/02/03 05:32:55;;;;;;;9.03;4.30;;;7.80;99.90;;;;;;5041855;28;20241;-74
2023/02/03 05:35:41;;;;;;;4.93;4.27;;;7.90;99.90;;;;;;5053008;28;20443;-74
2023/02/03 05:38:28;;;;;;;12.50;5.00;;;7.90;99.90;;;;;;5051232;28;20502;-74
2023/02/03 05:44:17;;;;;;;7.63;4.97;;;7.90;99.90;;;;;;5047792;28;21032;-73
2023/02/03 05:47:03;;;;;;;5.60;4.00;;;8.00;99.90;;;;;;5057047;28;20553;-73
2023/02/03 05:49:49;;;;;;;6.78;4.53;;;8.10;99.90;;;;;;5044692;28;20435;-73
2023/02/03 05:52:35;;;;;;;7.50;4.40;;;8.20;99.90;;;;;;5048320;28;20237;-73
2023/02/03 05:55:21;;;;;;;12.90;4.83;;;8.10;99.90;;;;;;5048504;28;20460;-73
2023/02/03 05:58:07;;;;;;;5.70;4.17;;;8.10;99.90;;;;;;5052081;28;20589;-72
2023/02/03 06:00:53;;;;;;;7.63;4.03;;;8.00;99.90;;;;;;5047137;28;20443;-73
2023/02/03 06:03:39;;;;;;;8.13;3.80;;;8.00;99.90;;;;;;5045038;28;20446;-72
2023/02/03 06:06:26;;;;;;;18.30;4.13;;;8.10;99.90;;;;;;5055742;28;20928;-73
2023/02/03 06:09:11;;;;;;;8.57;4.40;;;8.20;99.90;;;;;;5049890;28;20467;-73
2023/02/03 06:11:58;;;;;;;6.07;4.30;;;8.20;99.90;;;;;;5047846;28;20514;-73
2023/02/03 06:14:44;;;;;;;8.00;5.57;;;8.20;99.90;;;;;;5052040;28;20443;-73
2023/02/03 06:17:29;;;;;;;8.07;4.45;;;8.20;99.90;;;;;;5050962;28;20448;-72
2023/02/03 06:20:17;;;;;;;7.57;4.20;;;8.20;99.90;;;;;;5056239;28;20208;-73
2023/02/03 06:23:03;;;;;;;13.57;4.50;;;8.20;99.90;;;;;;5044448;28;21107;-73
2023/02/03 06:25:50;;;;;;;12.60;4.57;;;8.20;99.90;;;;;;5048060;28;20959;-73
2023/02/03 06:28:37;;;;;;;5.70;4.40;;;8.20;99.90;;;;;;5050479;28;20205;-73
2023/02/03 06:31:23;;;;;;;5.17;4.40;;;8.20;99.90;;;;;;5053848;28;20456;-73
2023/02/03 06:34:09;;;;;;;6.60;4.47;;;8.20;99.90;;;;;;5047245;28;20957;-73
2023/02/03 06:36:54;;;;;;;7.20;4.70;;;8.10;99.90;;;;;;5048221;28;20493;-73
2023/02/03 06:39:40;;;;;;;6.40;4.50;;;8.20;99.90;;;;;;5048545;28;20450;-73
2023/02/03 06:42:26;;;;;;;8.55;5.40;;;8.20;99.90;;;;;;5042756;28;21110;-73
2023/02/03 06:45:14;;;;;;;6.95;4.15;;;8.20;99.90;;;;;;5049289;28;20205;-72
2023/02/03 06:47:59;;;;;;;5.73;4.57;;;8.10;99.90;;;;;;5044583;28;20205;-73
2023/02/03 06:50:45;;;;;;;4.80;4.00;;;8.10;99.90;;;;;;5055409;28;20518;-72
2023/02/03 06:53:31;;;;;;;6.20;4.07;;;8.10;99.90;;;;;;5049228;28;21036;-72
2023/02/03 06:56:17;;;;;;;6.72;3.75;;;8.20;99.90;;;;;;5052306;28;20499;-73
2023/02/03 06:59:02;;;;;;;5.30;3.77;;;8.20;99.90;;;;;;5050467;28;20682;-73
2023/02/03 07:01:49;;;;;;;6.67;3.97;;;8.20;99.90;;;;;;5042364;28;20845;-73
2023/02/03 07:04:35;;;;;;;8.60;4.30;;;8.30;99.90;;;;;;5047293;28;20945;-73
2023/02/03 07:07:21;;;;;;;5.57;3.80;;;8.40;99.90;;;;;;5047807;28;20443;-72
2023/02/03 07:10:08;;;;;;;4.67;3.93;;;8.40;99.90;;;;;;5055985;28;20454;-73
2023/02/03 07:12:53;;;;;;;11.27;3.80;;;8.40;99.90;;;;;;5041136;28;20495;-73
2023/02/03 07:15:39;;;;;;;10.70;4.03;;;8.30;99.90;;;;;;5048418;28;20463;-72
2023/02/03 07:18:26;;;;;;;7.00;3.90;;;8.30;99.90;;;;;;5048880;28;20414;-73
2023/02/03 07:21:13;;;;;;;8.73;4.72;;;8.40;99.90;;;;;;5042570;28;20818;-73
2023/02/03 07:23:59;;;;;;;11.60;6.43;;;8.40;99.90;;;;;;5051259;28;20196;-74
2023/02/03 07:26:44;;;;;;;5.00;3.40;;;8.40;99.90;;;;;;5045683;28;20421;-73
2023/02/03 07:29:30;;;;;;;12.32;7.82;;;8.40;99.90;;;;;;5048617;28;20455;-73
2023/02/03 07:32:16;;;;;;;10.20;4.77;;;8.40;99.90;;;;;;5045666;28;20220;-73
2023/02/03 07:35:03;;;;;;;7.20;4.20;;;8.40;99.90;;;;;;5051883;28;20448;-74
2023/02/03 07:37:48;;;;;;;13.00;4.93;;;8.50;99.90;;;;;;5049555;28;20467;-74
2023/02/03 07:40:34;;;;;;;4.93;3.00;;;8.50;99.90;;;;;;5042139;28;20443;-73
2023/02/03 07:43:20;;;;;;;4.43;2.93;;;8.50;99.90;;;;;;5046095;28;20948;-74
2023/02/03 07:46:06;;;;;;;9.37;5.93;;;8.50;99.90;;;;;;5045200;28;20900;-75
2023/02/03 07:48:51;;;;;;;4.43;2.77;;;8.60;99.90;;;;;;5049387;28;20445;-73
2023/02/03 07:51:38;;;;;;;5.07;3.20;;;8.50;99.90;;;;;;5043866;28;20509;-73
2023/02/03 07:54:24;;;;;;;7.25;3.50;;;8.50;99.90;;;;;;5051767;28;21221;-73
2023/02/03 07:57:10;;;;;;;7.10;4.65;;;8.40;99.90;;;;;;5041652;28;20963;-74
2023/02/03 07:59:56;;;;;;;4.43;2.70;;;8.40;99.90;;;;;;5049998;28;20267;-73
2023/02/03 08:02:41;;;;;;;4.50;3.27;;;8.40;99.90;;;;;;5050583;28;20447;-74
2023/02/03 08:05:28;;;;;;;5.18;3.25;;;8.30;99.90;;;;;;5054822;28;20425;-73
2023/02/03 08:08:15;;;;;;;6.17;4.03;;;8.40;99.90;;;;;;5059871;28;20211;-72
2023/02/03 08:11:00;;;;;;;5.57;3.93;;;8.30;99.90;;;;;;5047906;28;20440;-73
2023/02/03 08:13:46;;;;;;;5.93;3.60;;;8.30;99.90;;;;;;5051704;28;20554;-73
2023/02/03 08:16:32;;;;;;;7.70;3.33;;;8.30;99.90;;;;;;5057367;28;20597;-73
2023/02/03 08:19:17;;;;;;;4.83;3.97;;;8.30;99.90;;;;;;5050813;28;20525;-71
2023/02/03 08:22:03;;;;;;;9.18;4.30;;;8.30;99.90;;;;;;5047766;28;20832;-73
2023/02/03 08:24:50;;;;;;;6.83;3.50;;;8.30;99.90;;;;;;5048547;28;20204;-73
2023/02/03 08:27:36;;;;;;;8.80;4.63;;;8.40;99.90;;;;;;5048981;28;20452;-73
2023/02/03 08:30:23;;;;;;;5.63;3.43;;;8.40;99.90;;;;;;5036126;28;20453;-73
2023/02/03 08:33:08;;;;;;;6.03;3.53;;;8.40;99.90;;;;;;5041283;28;20479;-73
2023/02/03 08:35:54;;;;;;;4.40;3.20;;;8.40;99.90;;;;;;5043119;28;20586;-73
2023/02/03 08:38:41;;;;;;;4.47;3.40;;;8.50;99.90;;;;;;5052291;28;20422;-73
2023/02/03 08:41:27;;;;;;;4.63;4.17;;;8.50;99.90;;;;;;5048717;28;20571;-73
2023/02/03 08:44:14;;;;;;;4.80;3.57;;;8.40;99.90;;;;;;5060667;28;20577;-73
2023/02/03 08:47:00;;;;;;;5.23;3.77;;;8.50;99.90;;;;;;5053740;28;20435;-73
2023/02/03 08:49:46;;;;;;;6.63;3.87;;;8.50;99.90;;;;;;5049632;28;20575;-74
2023/02/03 08:52:32;;;;;;;3.95;3.55;;;8.50;99.90;;;;;;5047913;28;20488;-74
2023/02/03 08:55:17;;;;;;;6.67;3.60;;;8.60;99.90;;;;;;5060119;28;20200;-73
2023/02/03 08:58:04;;;;;;;5.40;2.80;;;8.60;99.90;;;;;;5056862;28;20430;-73
2023/02/03 09:00:51;;;;;;;5.90;3.70;;;8.60;99.90;;;;;;5046697;28;20582;-74
2023/02/03 09:03:37;;;;;;;6.07;3.73;;;8.60;99.90;;;;;;5056419;28;20424;-73
2023/02/03 09:06:23;;;;;;;5.57;3.07;;;8.60;99.90;;;;;;5055396;28;21030;-73
2023/02/03 09:09:09;;;;;;;8.60;3.27;;;8.60;99.90;;;;;;5049493;28;20749;-73
2023/02/03 09:12:00;;;;;;;5.93;2.70;;;8.70;99.90;;;;;;5054313;28;21054;-73
2023/02/03 09:14:47;;;;;;;8.27;3.00;;;8.70;99.90;;;;;;5053940;28;20420;-73
2023/02/03 09:17:33;;;;;;;3.60;2.60;;;8.70;99.90;;;;;;5057465;28;20612;-75
2023/02/03 09:20:19;;;;;;;4.23;2.93;;;8.70;99.90;;;;;;5049841;28;20451;-74
2023/02/03 09:23:04;;;;;;;3.10;2.60;;;8.80;99.90;;;;;;5056937;28;21023;-73
2023/02/03 09:25:50;;;;;;;6.43;2.83;;;8.80;99.90;;;;;;5060208;28;20402;-73
2023/02/03 09:28:36;;;;;;;4.30;2.90;;;8.90;99.90;;;;;;5049988;28;20518;-71
2023/02/03 09:31:24;;;;;;;4.13;2.70;;;8.90;99.90;;;;;;5048157;28;20795;-73
2023/02/03 09:34:09;;;;;;;3.77;2.40;;;8.90;99.90;;;;;;5063939;28;20462;-73
2023/02/03 09:36:55;;;;;;;7.43;2.80;;;9.00;99.90;;;;;;5056051;28;21007;-74
2023/02/03 09:39:41;;;;;;;4.30;2.40;;;8.90;99.90;;;;;;5048189;28;20451;-73
2023/02/03 09:42:54;;;;;;;2.20;1.87;;;8.90;99.90;;;;;;5057133;28;20425;-73
2023/02/03 09:45:40;;;;;;;4.13;2.57;;;9.00;99.90;;;;;;5053893;28;20789;-73
2023/02/03 09:48:34;;;;;;;2.10;1.70;;;9.00;99.90;;;;;;5049502;28;20817;-72
2023/02/03 09:51:23;;;;;;;3.00;1.80;;;9.00;99.90;;;;;;5052597;28;20519;-73
2023/02/03 09:54:19;;;;;;;4.60;2.03;;;9.00;99.90;;;;;;5056984;28;20478;-73
2023/02/03 09:57:13;;;;;;;5.13;2.67;;;9.00;99.90;;;;;;5063656;28;20482;-73
2023/02/03 10:00:09;;;;;;;3.20;2.10;;;9.10;99.90;;;;;;5053224;28;20804;-74
2023/02/03 10:02:58;;;;;;;5.53;2.70;;;9.10;99.90;;;;;;5050558;28;20426;-74
2023/02/03 10:06:01;;;;;;;3.13;2.13;;;9.10;99.90;;;;;;5052852;28;20442;-73
2023/02/03 10:09:17;;;;;;;4.90;1.63;;;9.20;99.90;;;;;;5051554;28;20511;-73
2023/02/03 10:12:25;;;;;;;3.20;2.27;;;9.20;99.90;;;;;;5055424;28;20992;-72
2023/02/03 10:15:33;;;;;;;2.30;1.50;;;9.20;99.90;;;;;;5055342;28;20423;-73
2023/02/03 10:18:23;;;;;;;4.10;1.50;;;9.20;99.90;;;;;;5047479;28;20451;-74
2023/02/03 10:21:17;;;;;;;2.80;1.77;;;9.30;99.90;;;;;;5047123;28;20428;-73
2023/02/03 10:24:09;;;;;;;4.47;1.80;;;9.20;99.90;;;;;;5040995;28;20440;-71
2023/02/03 10:26:55;;;;;;;3.67;1.93;;;9.30;99.90;;;;;;5044699;28;20644;-74
2023/02/03 10:29:42;;;;;;;2.67;1.63;;;9.30;99.90;;;;;;5049944;28;20492;-74
2023/02/03 10:32:29;;;;;;;4.67;2.07;;;9.30;99.90;;;;;;5052703;28;20454;-73
2023/02/03 10:35:15;;;;;;;3.10;1.77;;;9.30;99.90;;;;;;5055820;28;20484;-74
2023/02/03 10:38:03;;;;;;;3.30;1.87;;;9.30;99.90;;;;;;5047270;28;20415;-72
2023/02/03 10:40:48;;;;;;;3.27;1.63;;;9.30;99.90;;;;;;5046470;28;20541;-73
2023/02/03 10:43:51;;;;;;;2.47;1.57;;;9.30;99.90;;;;;;5044717;28;21039;-73
2023/02/03 10:46:39;;;;;;;2.43;1.60;;;9.30;99.90;;;;;;5051908;28;20406;-73
2023/02/03 10:49:27;;;;;;;4.30;1.27;;;9.30;99.90;;;;;;5048288;28;21038;-73
2023/02/03 10:52:26;;;;;;;3.07;1.40;;;9.30;99.90;;;;;;5052652;28;20556;-72
2023/02/03 10:55:32;;;;;;;4.23;1.10;;;9.20;99.90;;;;;;5049195;28;20448;-72
2023/02/03 10:58:28;;;;;;;3.53;1.50;;;9.20;99.90;;;;;;5040971;28;20422;-73
2023/02/03 11:01:16;;;;;;;3.60;1.77;;;9.30;99.90;;;;;;5051749;28;20542;-74
2023/02/03 11:04:04;;;;;;;3.57;1.70;;;9.30;99.90;;;;;;5049861;28;20418;-72
2023/02/03 11:06:55;;;;;;;2.77;1.57;;;9.30;99.90;;;;;;5045980;28;20417;-73
2023/02/03 11:09:42;;;;;;;3.30;1.80;;;9.30;99.90;;;;;;5055041;28;20451;-73
2023/02/03 11:12:29;;;;;;;3.70;2.07;;;9.40;99.90;;;;;;5047239;28;20466;-73
2023/02/03 11:15:15;;;;;;;2.53;1.60;;;9.40;99.90;;;;;;5045274;28;20451;-74
2023/02/03 11:18:00;;;;;;;3.93;1.67;;;9.30;99.90;;;;;;5043759;28;22052;-74
2023/02/03 11:20:46;;;;;;;2.43;1.60;;;9.40;99.90;;;;;;5053485;28;20447;-73
2023/02/03 11:23:32;;;;;;;3.93;2.20;;;9.40;99.90;;;;;;5049518;28;20586;-73
2023/02/03 11:26:21;;;;;;;3.10;1.43;;;9.40;99.90;;;;;;5044904;28;20476;-73
2023/02/03 11:29:16;;;;;;;1.60;1.17;;;9.30;99.90;;;;;;5050281;28;20443;-73
2023/02/03 11:32:06;;;;;;;10.83;1.57;;;9.40;99.90;;;;;;5044429;28;20514;-71
2023/02/03 11:34:57;;;;;;;2.23;1.20;;;9.40;99.90;;;;;;5043745;28;20831;-72
2023/02/03 11:37:44;;;;;;;3.13;1.37;;;9.40;99.90;;;;;;5043482;28;20439;-73
2023/02/03 11:40:31;;;;;;;2.73;1.10;;;9.40;99.90;;;;;;5049621;28;20482;-73
2023/02/03 11:43:18;;;;;;;4.00;1.17;;;9.30;99.90;;;;;;5047284;28;20467;-73
2023/02/03 11:46:08;;;;;;;2.17;1.30;;;9.30;99.90;;;;;;5047759;28;20775;-73
2023/02/03 11:49:11;;;;;;;2.40;1.30;;;9.20;99.90;;;;;;5050439;28;20630;-73
2023/02/03 11:52:05;;;;;;;2.47;1.10;;;9.20;99.90;;;;;;5049616;28;20498;-73
2023/02/03 11:55:02;;;;;;;2.97;1.40;;;9.20;99.90;;;;;;5048033;28;20467;-73
2023/02/03 11:58:02;;;;;;;8.10;1.50;;;9.00;99.90;;;;;;5042522;28;20473;-73
2023/02/03 12:00:58;;;;;;;1.60;1.10;;;9.00;99.90;;;;;;5047878;28;20443;-73
2023/02/03 12:04:18;;;;;;;1.83;1.40;;;9.00;99.90;;;;;;5048862;28;20478;-73
2023/02/03 12:07:25;;;;;;;2.20;1.20;;;9.00;99.90;;;;;;5039289;28;20994;-73
2023/02/03 12:10:21;;;;;;;2.27;1.27;;;9.00;99.90;;;;;;5048811;28;20443;-73
2023/02/03 12:13:21;;;;;;;5.13;1.70;;;9.00;99.90;;;;;;5048169;28;20549;-73
2023/02/03 12:16:19;;;;;;;3.07;1.43;;;9.00;99.90;;;;;;5040698;28;20443;-73
2023/02/03 12:19:14;;;;;;;2.23;1.23;;;9.00;99.90;;;;;;5046970;28;20448;-73
2023/02/03 12:22:12;;;;;;;3.80;1.40;;;9.00;99.90;;;;;;5043201;28;20458;-73
2023/02/03 12:25:07;;;;;;;2.53;1.30;;;9.10;99.90;;;;;;5058026;28;20427;-73
2023/02/03 12:28:04;;;;;;;3.03;1.20;;;9.10;99.90;;;;;;5051886;28;20784;-73
2023/02/03 12:30:55;;;;;;;3.70;1.10;;;9.20;99.90;;;;;;5048822;28;20496;-73
2023/02/03 12:33:46;;;;;;;1.53;1.03;;;9.20;99.90;;;;;;5044040;28;20467;-72
2023/02/03 12:36:39;;;;;;;3.70;1.50;;;9.20;99.90;;;;;;5047312;28;20953;-73
2023/02/03 12:39:31;;;;;;;1.83;0.93;;;9.20;99.90;;;;;;5051237;28;20563;-73
2023/02/03 12:42:21;;;;;;;9.80;4.00;;;9.10;99.90;;;;;;5060514;28;20489;-73
2023/02/03 12:45:13;;;;;;;1.87;1.30;;;9.20;99.90;;;;;;5055362;28;20419;-72
2023/02/03 12:48:03;;;;;;;1.93;1.10;;;9.10;99.90;;;;;;5042320;28;20482;-72
2023/02/03 12:50:52;;;;;;;2.10;0.80;;;9.10;99.90;;;;;;5044197;28;20514;-73
2023/02/03 12:53:41;;;;;;;2.27;1.10;;;9.20;99.90;;;;;;5044507;28;20944;-72
2023/02/03 12:56:35;;;;;;;1.40;1.00;;;9.20;99.90;;;;;;5036602;28;20426;-72
2023/02/03 12:59:23;;;;;;;2.33;1.10;;;9.20;99.90;;;;;;5044516;28;20444;-71
2023/02/03 13:02:18;;;;;;;4.77;0.90;;;9.30;99.90;;;;;;5037290;28;20830;-71
2023/02/03 13:05:14;;;;;;;1.70;1.10;;;9.30;99.90;;;;;;5043937;28;20501;-73
2023/02/03 13:08:07;;;;;;;3.83;1.03;;;9.30;99.90;;;;;;5047365;28;20526;-72
2023/02/03 13:10:59;;;;;;;2.33;1.50;;;9.40;99.90;;;;;;5056397;28;20405;-72
2023/02/03 13:13:50;;;;;;;2.57;1.23;;;9.30;99.90;;;;;;5047897;28;20463;-72
2023/02/03 13:16:39;;;;;;;1.30;0.80;;;9.40;99.90;;;;;;5039066;28;20558;-72
2023/02/03 13:19:29;;;;;;;1.70;0.97;;;9.30;99.90;;;;;;5054914;28;20447;-72
2023/02/03 13:22:16;;;;;;;1.30;1.00;;;9.30;99.90;;;;;;5058274;28;20463;-72
2023/02/03 13:25:09;;;;;;;3.70;0.77;;;9.30;99.90;;;;;;5045742;28;20441;-72
2023/02/03 13:28:06;;;;;;;3.00;1.40;;;9.30;99.90;;;;;;5052248;28;20554;-72
2023/02/03 13:31:17;;;;;;;1.57;0.90;;;9.30;99.90;;;;;;5050290;28;20527;-72
2023/02/03 13:34:20;;;;;;;1.80;1.00;;;9.30;99.90;;;;;;5055636;28;20565;-72
2023/02/03 13:37:38;;;;;;;6.20;3.60;;;9.30;99.90;;;;;;5053183;28;20500;-72
2023/02/03 13:40:37;;;;;;;4.07;2.60;;;9.30;99.90;;;;;;5055855;28;20522;-72
2023/02/03 13:43:28;;;;;;;8.70;4.90;;;9.30;99.90;;;;;;5044758;28;20474;-72
2023/02/03 13:46:22;;;;;;;9.10;5.17;;;9.40;99.90;;;;;;5047933;28;20557;-72
2023/02/03 13:49:09;;;;;;;5.97;3.73;;;9.40;99.90;;;;;;5053632;28;20907;-72
2023/02/03 13:51:55;;;;;;;2.60;1.63;;;9.40;99.90;;;;;;5056187;28;20447;-72
2023/02/03 13:54:44;;;;;;;10.63;4.63;;;9.40;99.90;;;;;;5050590;28;20475;-72
2023/02/03 13:57:34;;;;;;;6.60;3.40;;;9.40;99.90;;;;;;5053125;28;20952;-72
2023/02/03 14:00:53;;;;;;;3.67;2.37;;;9.40;99.90;;;;;;5059350;28;21002;-72
2023/02/03 14:03:44;;;;;;;2.47;1.50;;;9.30;99.90;;;;;;5043745;28;20441;-72
2023/02/03 14:07:01;;;;;;;3.37;2.00;;;9.30;99.90;;;;;;5052302;28;20776;-72
2023/02/03 14:09:47;;;;;;;19.80;9.47;;;9.20;99.90;;;;;;5063683;28;20673;-72
2023/02/03 14:12:35;;;;;;;35.63;11.17;;;9.20;99.90;;;;;;5042435;28;20869;-72
2023/02/03 14:15:29;;;;;;;20.47;6.20;;;9.20;99.90;;;;;;5045033;28;20873;-72
2023/02/03 14:18:34;;;;;;;12.27;4.67;;;9.20;99.90;;;;;;5046336;28;20440;-72
2023/02/03 14:21:23;;;;;;;72.13;28.17;;;9.20;99.90;;;;;;5048112;28;20447;-72
2023/02/03 14:24:12;;;;;;;16.97;7.37;;;9.30;99.90;;;;;;5043503;28;20442;-72
2023/02/03 14:27:01;;;;;;;8.57;3.70;;;9.30;99.90;;;;;;5049869;28;20563;-72
2023/02/03 14:30:02;;;;;;;5.07;2.00;;;9.30;99.90;;;;;;5045590;28;20458;-72
2023/02/03 14:32:54;;;;;;;6.67;3.50;;;9.30;99.90;;;;;;5048755;28;20661;-72
2023/02/03 14:35:41;;;;;;;4.93;2.63;;;9.40;99.90;;;;;;5044291;28;20487;-72
2023/02/03 14:38:32;;;;;;;2.83;1.93;;;9.40;99.90;;;;;;5047723;28;20444;-72
2023/02/03 14:41:24;;;;;;;4.50;1.67;;;9.40;99.90;;;;;;5047338;28;20470;-72
2023/02/03 14:44:21;;;;;;;2.40;1.20;;;9.40;99.90;;;;;;5043365;28;20435;-72
2023/02/03 14:47:17;;;;;;;3.20;1.30;;;9.40;99.90;;;;;;5048756;28;20454;-72
2023/02/03 14:50:20;;;;;;;1.97;1.40;;;9.30;99.90;;;;;;5046922;28;20464;-72
2023/02/03 14:53:21;;;;;;;2.03;1.37;;;9.40;99.90;;;;;;5045266;28;20471;-72
2023/02/03 14:56:27;;;;;;;1.73;1.00;;;9.40;99.90;;;;;;5045116;28;20578;-72